createdAt,value
2023-06-28T00:00:41.155Z,100.00
2023-06-28T00:03:12.129Z,100.00
2023-06-28T00:05:40.052Z,100.00
2023-06-28T00:08:06.652Z,100.00
2023-06-28T00:10:33.111Z,100.00
2023-06-28T00:12:59.626Z,100.00
2023-06-28T00:15:26.145Z,100.00
2023-06-28T00:17:53.376Z,100.00
2023-06-28T00:20:19.987Z,100.00
2023-06-28T00:22:46.626Z,100.00
2023-06-28T00:25:13.111Z,100.00
2023-06-28T00:27:39.645Z,100.00
2023-06-28T00:30:06.864Z,100.00
2023-06-28T00:32:33.475Z,100.00
2023-06-28T00:35:00.128Z,100.00
2023-06-28T00:37:26.852Z,100.00
2023-06-28T00:39:53.323Z,100.00
2023-06-28T00:42:19.870Z,100.00
2023-06-28T00:44:46.366Z,100.00
2023-06-28T00:47:13.302Z,100.00
2023-06-28T00:49:40.608Z,100.00
2023-06-28T00:52:08.448Z,100.00
2023-06-28T00:54:35.022Z,100.00
2023-06-28T00:57:02.341Z,100.00
2023-06-28T00:59:30.524Z,100.00
2023-06-28T01:01:57.230Z,100.00
2023-06-28T01:04:24.120Z,100.00
2023-06-28T01:07:26.318Z,100.00
2023-06-28T01:09:53.003Z,100.00
2023-06-28T01:12:20.035Z,100.00
2023-06-28T01:14:46.916Z,100.00
2023-06-28T01:17:13.476Z,100.00
2023-06-28T01:19:40.411Z,100.00
2023-06-28T01:22:10.880Z,100.00
2023-06-28T01:24:37.430Z,100.00
2023-06-28T01:27:05.033Z,100.00
2023-06-28T01:29:32.141Z,100.00
2023-06-28T01:31:58.668Z,100.00
2023-06-28T01:34:29.231Z,100.00
2023-06-28T01:36:58.162Z,100.00
2023-06-28T01:39:25.648Z,100.00
2023-06-28T01:41:53.706Z,100.00
2023-06-28T01:44:20.644Z,100.00
2023-06-28T01:46:47.619Z,100.00
2023-06-28T01:49:14.352Z,100.00
2023-06-28T01:51:41.230Z,100.00
2023-06-28T01:54:07.823Z,100.00
2023-06-28T01:56:34.449Z,100.00
2023-06-28T01:59:01.092Z,100.00
2023-06-28T02:01:27.719Z,100.00
2023-06-28T02:03:54.278Z,100.00
2023-06-28T02:06:20.839Z,100.00
2023-06-28T02:08:47.362Z,100.00
2023-06-28T02:11:13.934Z,100.00
2023-06-28T02:13:40.436Z,100.00
2023-06-28T02:16:07.033Z,100.00
2023-06-28T02:18:35.976Z,100.00
2023-06-28T02:21:02.709Z,100.00
2023-06-28T02:23:29.221Z,100.00
2023-06-28T02:25:57.326Z,100.00
2023-06-28T02:28:25.575Z,100.00
2023-06-28T02:30:52.102Z,100.00
2023-06-28T02:33:18.584Z,100.00
2023-06-28T02:35:45.088Z,100.00
2023-06-28T02:38:11.565Z,100.00
2023-06-28T02:40:38.052Z,100.00
2023-06-28T02:43:04.553Z,100.00
2023-06-28T02:45:31.048Z,100.00
2023-06-28T02:47:57.632Z,100.00
2023-06-28T02:50:25.498Z,100.00
2023-06-28T02:52:52.245Z,100.00
2023-06-28T02:55:18.758Z,100.00
2023-06-28T02:57:45.216Z,100.00
2023-06-28T03:00:12.340Z,100.00
2023-06-28T03:02:38.961Z,100.00
2023-06-28T03:05:05.631Z,100.00
2023-06-28T03:07:32.181Z,100.00
2023-06-28T03:09:58.760Z,100.00
2023-06-28T03:12:25.294Z,100.00
2023-06-28T03:14:51.772Z,100.00
2023-06-28T03:17:20.824Z,100.00
2023-06-28T03:19:47.676Z,100.00
2023-06-28T03:22:15.185Z,100.00
2023-06-28T03:24:41.729Z,100.00
2023-06-28T03:27:09.075Z,100.00
2023-06-28T03:29:35.858Z,100.00
2023-06-28T03:32:02.457Z,100.00
2023-06-28T03:34:29.021Z,100.00
2023-06-28T03:37:03.620Z,100.00
2023-06-28T03:39:31.803Z,100.00
2023-06-28T03:41:58.259Z,100.00
2023-06-28T03:44:24.905Z,100.00
2023-06-28T03:46:51.479Z,100.00
2023-06-28T03:49:18.038Z,100.00
2023-06-28T03:51:44.523Z,100.00
2023-06-28T03:54:11.047Z,100.00
2023-06-28T03:56:37.558Z,100.00
2023-06-28T03:59:04.483Z,100.00
2023-06-28T04:01:31.128Z,100.00
2023-06-28T04:03:57.646Z,100.00
2023-06-28T04:06:24.208Z,100.00
2023-06-28T04:08:50.679Z,100.00
2023-06-28T04:11:17.186Z,100.00
2023-06-28T04:13:43.651Z,100.00
2023-06-28T04:16:10.210Z,100.00
2023-06-28T04:18:36.756Z,100.00
2023-06-28T04:21:03.543Z,100.00
2023-06-28T04:23:30.114Z,100.00
2023-06-28T04:25:59.147Z,100.00
2023-06-28T04:28:26.528Z,100.00
2023-06-28T04:30:53.121Z,100.00
2023-06-28T04:33:23.496Z,100.00
2023-06-28T04:35:51.949Z,100.00
2023-06-28T04:38:20.894Z,100.00
2023-06-28T04:40:47.393Z,100.00
2023-06-28T04:43:15.309Z,100.00
2023-06-28T04:45:42.581Z,100.00
2023-06-28T04:48:09.231Z,100.00
2023-06-28T04:50:37.768Z,100.00
2023-06-28T04:53:05.674Z,100.00
2023-06-28T04:55:35.981Z,100.00
2023-06-28T04:58:04.047Z,100.00
2023-06-28T05:00:31.543Z,100.00
2023-06-28T05:02:58.963Z,100.00
2023-06-28T05:05:26.013Z,100.00
2023-06-28T05:07:53.877Z,100.00
2023-06-28T05:10:22.310Z,100.00
2023-06-28T05:12:53.052Z,100.00
2023-06-28T05:15:20.376Z,100.00
2023-06-28T05:17:47.684Z,100.00
2023-06-28T05:20:15.775Z,100.00
2023-06-28T05:22:47.569Z,100.00
2023-06-28T05:25:14.205Z,100.00
2023-06-28T05:27:40.729Z,100.00
2023-06-28T05:30:08.778Z,100.00
2023-06-28T05:32:35.384Z,100.00
2023-06-28T05:35:03.910Z,100.00
2023-06-28T05:37:30.396Z,100.00
2023-06-28T05:39:56.956Z,100.00
2023-06-28T05:42:23.408Z,100.00
2023-06-28T05:44:50.033Z,100.00
2023-06-28T05:47:16.543Z,100.00
2023-06-28T05:49:44.122Z,100.00
2023-06-28T05:52:10.813Z,100.00
2023-06-28T05:54:37.423Z,100.00
2023-06-28T05:57:04.465Z,100.00
2023-06-28T05:59:32.415Z,100.00
2023-06-28T06:01:59.020Z,100.00
2023-06-28T06:04:25.675Z,100.00
2023-06-28T06:06:52.427Z,100.00
2023-06-28T06:09:19.086Z,100.00
2023-06-28T06:11:46.234Z,100.00
2023-06-28T06:14:12.792Z,100.00
2023-06-28T06:16:39.400Z,100.00
2023-06-28T06:19:07.006Z,100.00
2023-06-28T06:21:33.539Z,100.00
2023-06-28T06:24:01.255Z,100.00
2023-06-28T06:26:28.813Z,100.00
2023-06-28T06:28:55.623Z,100.00
2023-06-28T06:31:22.393Z,100.00
2023-06-28T06:33:49.331Z,100.00
2023-06-28T06:36:16.088Z,100.00
2023-06-28T06:38:42.608Z,100.00
2023-06-28T06:41:09.220Z,100.00
2023-06-28T06:43:35.806Z,100.00
2023-06-28T06:46:02.348Z,100.00
2023-06-28T06:48:28.889Z,100.00
2023-06-28T06:50:55.409Z,100.00
2023-06-28T06:53:21.872Z,100.00
2023-06-28T06:55:48.737Z,100.00
2023-06-28T06:58:15.309Z,100.00
2023-06-28T07:00:41.978Z,100.00
2023-06-28T07:03:08.857Z,100.00
2023-06-28T07:05:35.509Z,100.00
2023-06-28T07:08:02.112Z,100.00
2023-06-28T07:10:28.659Z,100.00
2023-06-28T07:12:55.157Z,100.00
2023-06-28T07:15:21.694Z,100.00
2023-06-28T07:17:48.302Z,100.00
2023-06-28T07:20:14.945Z,100.00
2023-06-28T07:22:41.527Z,100.00
2023-06-28T07:25:08.398Z,100.00
2023-06-28T07:27:35.007Z,100.00
2023-06-28T07:30:01.827Z,100.00
2023-06-28T07:32:28.381Z,100.00
2023-06-28T07:34:58.864Z,100.00
2023-06-28T07:37:25.890Z,97.89
2023-06-28T07:39:52.742Z,97.71
2023-06-28T07:42:22.989Z,93.47
2023-06-28T07:44:49.593Z,91.88
2023-06-28T07:47:16.288Z,88.44
2023-06-28T07:49:42.989Z,82.32
2023-06-28T07:52:10.367Z,78.14
2023-06-28T07:54:36.879Z,74.02
2023-06-28T07:57:03.749Z,73.31
2023-06-28T07:59:30.469Z,76.37
2023-06-28T08:01:57.191Z,79.74
2023-06-28T08:04:24.185Z,80.42
2023-06-28T08:06:50.966Z,80.07
2023-06-28T08:09:17.683Z,77.57
2023-06-28T08:11:44.295Z,75.88
2023-06-28T08:14:10.849Z,74.45
2023-06-28T08:16:37.477Z,71.63
2023-06-28T08:19:04.008Z,72.57
2023-06-28T08:21:30.641Z,70.06
2023-06-28T08:23:57.318Z,69.29
2023-06-28T08:26:23.990Z,69.80
2023-06-28T08:28:59.893Z,71.25
2023-06-28T08:31:27.700Z,69.93
2023-06-28T08:33:54.270Z,72.75
2023-06-28T08:36:20.831Z,70.41
2023-06-28T08:38:47.446Z,69.65
2023-06-28T08:41:16.889Z,67.44
2023-06-28T08:43:49.564Z,65.87
2023-06-28T08:46:16.325Z,65.13
2023-06-28T08:48:43.972Z,61.29
2023-06-28T08:51:10.573Z,60.48
2023-06-28T08:53:38.901Z,60.26
2023-06-28T08:56:07.573Z,58.70
2023-06-28T08:58:35.302Z,59.64
2023-06-28T09:01:02.382Z,60.73
2023-06-28T09:03:31.476Z,60.35
2023-06-28T09:05:59.662Z,60.58
2023-06-28T09:08:27.427Z,61.35
2023-06-28T09:10:57.549Z,59.87
2023-06-28T09:13:24.626Z,57.73
2023-06-28T09:15:54.217Z,57.95
2023-06-28T09:18:21.200Z,56.66
2023-06-28T09:20:52.539Z,53.90
2023-06-28T09:23:24.414Z,53.76
2023-06-28T09:25:51.313Z,52.53
2023-06-28T09:28:18.870Z,51.61
2023-06-28T09:30:45.368Z,49.43
2023-06-28T09:33:12.252Z,47.50
2023-06-28T09:35:38.915Z,47.65
2023-06-28T09:38:09.598Z,48.18
2023-06-28T09:40:36.473Z,48.53
2023-06-28T09:43:04.216Z,50.71
2023-06-28T09:45:34.003Z,49.40
2023-06-28T09:48:02.462Z,46.71
2023-06-28T09:50:46.072Z,44.48
2023-06-28T09:53:14.659Z,45.12
2023-06-28T09:55:43.962Z,46.41
2023-06-28T09:58:22.125Z,47.91
2023-06-28T10:00:50.428Z,45.08
2023-06-28T10:03:18.570Z,43.21
2023-06-28T10:05:49.042Z,41.93
2023-06-28T10:08:17.338Z,42.29
2023-06-28T10:10:46.138Z,42.92
2023-06-28T10:13:23.231Z,42.78
2023-06-28T10:16:10.452Z,42.77
2023-06-28T10:18:37.442Z,44.69
2023-06-28T10:21:08.128Z,43.81
2023-06-28T10:23:40.116Z,44.27
2023-06-28T10:26:07.239Z,43.23
2023-06-28T10:28:35.709Z,41.28
2023-06-28T10:31:06.465Z,40.88
2023-06-28T10:33:34.266Z,44.32
2023-06-28T10:36:01.907Z,46.17
2023-06-28T10:38:45.221Z,46.06
2023-06-28T10:41:15.919Z,43.67
2023-06-28T10:43:43.068Z,41.48
2023-06-28T10:46:23.878Z,40.64
2023-06-28T10:49:07.552Z,42.14
2023-06-28T10:51:36.199Z,44.83
2023-06-28T10:54:16.825Z,46.61
2023-06-28T10:56:48.249Z,47.12
2023-06-28T10:59:15.597Z,45.26
2023-06-28T11:01:51.018Z,44.69
2023-06-28T11:04:19.261Z,45.98
2023-06-28T11:06:47.364Z,46.47
2023-06-28T11:09:16.385Z,47.15
2023-06-28T11:11:58.517Z,45.78
2023-06-28T11:14:26.221Z,46.54
2023-06-28T11:17:01.156Z,45.97
2023-06-28T11:19:28.431Z,45.61
2023-06-28T11:21:59.553Z,45.67
2023-06-28T11:24:41.754Z,46.89
2023-06-28T11:27:12.704Z,47.67
2023-06-28T11:30:04.299Z,48.81
2023-06-28T11:32:33.697Z,47.21
2023-06-28T11:35:01.474Z,48.67
2023-06-28T11:37:28.593Z,48.32
2023-06-28T11:39:55.305Z,50.22
2023-06-28T11:42:22.036Z,50.00
2023-06-28T11:44:50.373Z,51.09
2023-06-28T11:47:21.963Z,51.25
2023-06-28T11:49:51.009Z,50.77
2023-06-28T11:52:23.520Z,51.68
2023-06-28T11:54:50.190Z,52.89
2023-06-28T11:57:16.782Z,53.69
2023-06-28T11:59:51.203Z,54.14
2023-06-28T12:02:17.960Z,54.80
2023-06-28T12:04:59.810Z,53.69
2023-06-28T12:07:27.078Z,53.61
2023-06-28T12:09:58.187Z,53.57
2023-06-28T12:12:34.929Z,53.64
2023-06-28T12:15:01.889Z,55.09
2023-06-28T12:17:38.176Z,54.84
2023-06-28T12:20:05.254Z,54.95
2023-06-28T12:22:49.928Z,54.89
2023-06-28T12:25:27.177Z,55.34
2023-06-28T12:28:04.260Z,55.22
2023-06-28T12:30:31.323Z,55.30
2023-06-28T12:32:58.329Z,55.31
2023-06-28T12:35:26.551Z,56.41
2023-06-28T12:37:55.577Z,56.04
2023-06-28T12:40:33.067Z,55.72
2023-06-28T12:43:13.938Z,54.97
2023-06-28T12:45:50.036Z,54.18
2023-06-28T12:48:18.535Z,54.62
2023-06-28T12:50:49.776Z,55.42
2023-06-28T12:53:16.347Z,55.41
2023-06-28T12:55:43.396Z,55.07
2023-06-28T12:58:11.158Z,55.15
2023-06-28T13:00:40.876Z,55.34
2023-06-28T13:03:12.454Z,55.93
2023-06-28T13:05:43.244Z,56.09
2023-06-28T13:08:40.542Z,56.08
2023-06-28T13:11:07.388Z,55.50
2023-06-28T13:13:36.526Z,55.62
2023-06-28T13:16:03.570Z,55.86
2023-06-28T13:18:30.535Z,56.68
2023-06-28T13:20:57.286Z,57.50
2023-06-28T13:23:27.147Z,57.11
2023-06-28T13:26:03.821Z,58.30
2023-06-28T13:28:39.542Z,59.14
2023-06-28T13:31:12.135Z,58.56
2023-06-28T13:33:38.754Z,57.33
2023-06-28T13:36:05.810Z,58.21
2023-06-28T13:38:32.504Z,57.45
2023-06-28T13:40:59.200Z,57.36
2023-06-28T13:43:25.866Z,58.00
2023-06-28T13:45:52.575Z,58.14
2023-06-28T13:48:19.923Z,57.22
2023-06-28T13:50:46.545Z,57.99
2023-06-28T13:53:15.187Z,58.70
2023-06-28T13:55:43.214Z,59.06
2023-06-28T13:58:10.262Z,58.59
2023-06-28T14:00:37.011Z,58.31
2023-06-28T14:03:04.443Z,58.48
2023-06-28T14:05:31.034Z,58.65
2023-06-28T14:07:57.640Z,58.67
2023-06-28T14:10:24.340Z,58.60
2023-06-28T14:12:52.928Z,58.94
2023-06-28T14:15:19.902Z,59.39
2023-06-28T14:17:46.796Z,59.21
2023-06-28T14:20:13.446Z,59.36
2023-06-28T14:22:40.263Z,59.08
2023-06-28T14:25:10.289Z,58.93
2023-06-28T14:27:38.194Z,58.41
2023-06-28T14:30:05.267Z,58.55
2023-06-28T14:32:31.927Z,57.75
2023-06-28T14:34:58.491Z,58.29
2023-06-28T14:37:37.256Z,58.27
2023-06-28T14:40:06.408Z,58.40
2023-06-28T14:42:33.034Z,58.14
2023-06-28T14:44:59.641Z,58.54
2023-06-28T14:47:26.728Z,56.24
2023-06-28T14:49:53.381Z,60.43
2023-06-28T14:52:20.126Z,59.91
2023-06-28T14:54:49.015Z,58.37
2023-06-28T14:57:15.622Z,59.67
2023-06-28T14:59:45.554Z,58.48
2023-06-28T15:02:12.577Z,59.32
2023-06-28T15:04:39.127Z,57.70
2023-06-28T15:07:05.941Z,59.36
2023-06-28T15:09:32.961Z,59.48
2023-06-28T15:11:59.544Z,60.79
2023-06-28T15:14:26.045Z,59.94
2023-06-28T15:16:52.705Z,60.86
2023-06-28T15:19:19.316Z,59.71
2023-06-28T15:21:45.831Z,60.85
2023-06-28T15:24:12.313Z,61.99
2023-06-28T15:26:39.150Z,61.75
2023-06-28T15:29:05.876Z,60.87
2023-06-28T15:31:33.848Z,62.04
2023-06-28T15:34:00.767Z,63.42
2023-06-28T15:36:27.342Z,63.15
2023-06-28T15:38:53.995Z,62.95
2023-06-28T15:41:20.716Z,62.43
2023-06-28T15:43:47.748Z,59.44
2023-06-28T15:46:14.289Z,58.43
2023-06-28T15:48:40.836Z,60.63
2023-06-28T15:51:07.434Z,61.29
2023-06-28T15:53:34.206Z,61.15
2023-06-28T15:56:01.002Z,59.75
2023-06-28T15:58:27.560Z,60.55
2023-06-28T16:00:57.485Z,60.04
2023-06-28T16:03:24.612Z,59.74
2023-06-28T16:05:51.280Z,59.31
2023-06-28T16:08:18.086Z,58.08
2023-06-28T16:10:44.753Z,57.45
2023-06-28T16:13:14.813Z,58.02
2023-06-28T16:15:41.513Z,59.68
2023-06-28T16:18:08.038Z,59.03
2023-06-28T16:20:34.540Z,60.94
2023-06-28T16:23:01.029Z,61.66
2023-06-28T16:25:27.484Z,59.01
2023-06-28T16:27:54.020Z,60.76
2023-06-28T16:30:20.502Z,60.75
2023-06-28T16:32:46.996Z,60.74
2023-06-28T16:35:14.245Z,61.98
2023-06-28T16:37:40.952Z,59.86
2023-06-28T16:40:07.985Z,61.39
2023-06-28T16:42:34.559Z,61.89
2023-06-28T16:45:01.050Z,61.96
2023-06-28T16:47:27.607Z,60.50
2023-06-28T16:49:54.151Z,60.21
2023-06-28T16:52:20.705Z,59.59
2023-06-28T16:54:47.193Z,59.03
2023-06-28T16:57:13.699Z,59.91
2023-06-28T16:59:40.181Z,60.76
2023-06-28T17:02:06.949Z,60.17
2023-06-28T17:04:33.506Z,59.67
2023-06-28T17:07:00.076Z,61.38
2023-06-28T17:09:27.494Z,60.67
2023-06-28T17:11:54.021Z,61.74
2023-06-28T17:14:20.536Z,63.99
2023-06-28T17:16:47.038Z,62.32
2023-06-28T17:19:13.558Z,60.48
2023-06-28T17:21:40.065Z,61.02
2023-06-28T17:24:07.584Z,60.07
2023-06-28T17:26:34.356Z,62.33
2023-06-28T17:29:00.911Z,60.88
2023-06-28T17:31:27.734Z,61.85
2023-06-28T17:33:54.369Z,62.91
2023-06-28T17:36:22.258Z,63.01
2023-06-28T17:38:48.746Z,62.10
2023-06-28T17:41:15.496Z,64.66
2023-06-28T17:43:42.587Z,63.83
2023-06-28T17:46:09.434Z,64.06
2023-06-28T17:48:35.939Z,64.05
2023-06-28T17:51:02.505Z,63.73
2023-06-28T17:53:29.023Z,64.51
2023-06-28T17:55:56.304Z,64.07
2023-06-28T17:58:22.891Z,63.44
2023-06-28T18:00:50.549Z,64.48
2023-06-28T18:03:17.129Z,66.56
2023-06-28T18:05:43.677Z,63.79
2023-06-28T18:08:11.320Z,63.97
2023-06-28T18:10:38.398Z,66.70
2023-06-28T18:13:06.257Z,66.52
2023-06-28T18:15:32.732Z,66.75
2023-06-28T18:17:59.360Z,65.67
2023-06-28T18:20:25.931Z,64.26
2023-06-28T18:22:52.380Z,63.07
2023-06-28T18:25:18.854Z,66.04
2023-06-28T18:27:45.412Z,66.98
2023-06-28T18:30:12.279Z,65.56
2023-06-28T18:32:38.848Z,68.49
2023-06-28T18:35:05.891Z,67.88
2023-06-28T18:37:32.352Z,66.72
2023-06-28T18:39:58.941Z,68.18
2023-06-28T18:42:26.047Z,68.25
2023-06-28T18:44:52.533Z,67.98
2023-06-28T18:47:19.076Z,68.03
2023-06-28T18:49:45.664Z,67.84
2023-06-28T18:52:14.752Z,70.18
2023-06-28T18:54:44.229Z,67.62
2023-06-28T18:57:11.017Z,68.99
2023-06-28T18:59:37.508Z,69.19
2023-06-28T19:02:04.237Z,68.45
2023-06-28T19:04:30.796Z,69.00
2023-06-28T19:06:57.275Z,68.89
2023-06-28T19:09:23.796Z,72.88
2023-06-28T19:11:50.247Z,72.46
2023-06-28T19:14:16.775Z,69.64
2023-06-28T19:16:43.283Z,70.72
2023-06-28T19:19:09.738Z,71.98
2023-06-28T19:21:36.267Z,73.32
2023-06-28T19:24:02.801Z,75.17
2023-06-28T19:26:29.281Z,76.48
2023-06-28T19:28:55.769Z,78.64
2023-06-28T19:31:22.407Z,79.83
2023-06-28T19:33:49.015Z,80.16
2023-06-28T19:36:15.476Z,82.50
2023-06-28T19:38:41.977Z,83.17
2023-06-28T19:41:08.484Z,85.47
2023-06-28T19:43:35.044Z,86.87
2023-06-28T19:46:05.096Z,88.18
2023-06-28T19:48:32.565Z,89.78
2023-06-28T19:51:01.880Z,92.87
2023-06-28T19:53:29.754Z,94.70
2023-06-28T19:55:56.283Z,96.07
2023-06-28T19:58:22.895Z,96.90
2023-06-28T20:00:49.403Z,97.57
2023-06-28T20:03:15.973Z,98.63
2023-06-28T20:05:43.973Z,100.00
2023-06-28T20:08:10.792Z,100.00
2023-06-28T20:10:37.411Z,100.00
2023-06-28T20:13:04.059Z,100.00
2023-06-28T20:15:30.581Z,100.00
2023-06-28T20:17:57.126Z,100.00
2023-06-28T20:20:23.703Z,100.00
2023-06-28T20:22:50.233Z,100.00
2023-06-28T20:25:16.737Z,100.00
2023-06-28T20:27:43.340Z,100.00
2023-06-28T20:30:10.868Z,100.00
2023-06-28T20:32:38.605Z,100.00
2023-06-28T20:35:06.907Z,100.00
2023-06-28T20:37:33.420Z,100.00
2023-06-28T20:40:01.798Z,100.00
2023-06-28T20:42:29.556Z,100.00
2023-06-28T20:44:56.676Z,100.00
2023-06-28T20:47:24.708Z,100.00
2023-06-28T20:49:51.668Z,100.00
2023-06-28T20:52:19.159Z,100.00
2023-06-28T20:54:45.723Z,100.00
2023-06-28T20:57:12.340Z,100.00
2023-06-28T20:59:38.835Z,100.00
2023-06-28T21:02:05.834Z,100.00
2023-06-28T21:04:32.582Z,100.00
2023-06-28T21:06:59.330Z,100.00
2023-06-28T21:09:26.379Z,100.00
2023-06-28T21:11:53.351Z,100.00
2023-06-28T21:14:20.035Z,100.00
2023-06-28T21:16:46.894Z,100.00
2023-06-28T21:19:13.413Z,100.00
2023-06-28T21:21:41.983Z,100.00
2023-06-28T21:24:10.063Z,100.00
2023-06-28T21:26:37.253Z,100.00
2023-06-28T21:29:03.804Z,100.00
2023-06-28T21:31:31.055Z,100.00
2023-06-28T21:33:57.702Z,100.00
2023-06-28T21:36:27.696Z,100.00
2023-06-28T21:38:54.462Z,100.00
2023-06-28T21:41:21.014Z,100.00
2023-06-28T21:43:47.633Z,100.00
2023-06-28T21:46:14.148Z,100.00
2023-06-28T21:48:40.642Z,100.00
2023-06-28T21:51:07.183Z,100.00
2023-06-28T21:53:33.724Z,100.00
2023-06-28T21:56:00.456Z,100.00
2023-06-28T21:58:28.706Z,100.00
2023-06-28T22:00:56.196Z,100.00
2023-06-28T22:03:22.819Z,100.00
2023-06-28T22:05:49.328Z,100.00
2023-06-28T22:08:15.877Z,100.00
2023-06-28T22:10:42.442Z,100.00
2023-06-28T22:13:12.287Z,100.00
2023-06-28T22:15:40.897Z,100.00
2023-06-28T22:18:08.921Z,100.00
2023-06-28T22:20:39.930Z,100.00
2023-06-28T22:23:07.726Z,100.00
2023-06-28T22:25:35.545Z,100.00
2023-06-28T22:28:05.980Z,100.00
2023-06-28T22:30:32.783Z,100.00
2023-06-28T22:32:59.438Z,100.00
2023-06-28T22:35:27.600Z,100.00
2023-06-28T22:37:56.275Z,100.00
2023-06-28T22:40:23.154Z,100.00
2023-06-28T22:42:50.348Z,100.00
2023-06-28T22:45:17.375Z,100.00
2023-06-28T22:47:44.497Z,100.00
2023-06-28T22:50:11.489Z,100.00
2023-06-28T22:52:42.507Z,100.00
2023-06-28T22:55:10.643Z,100.00
2023-06-28T22:57:38.588Z,100.00
2023-06-28T23:00:07.825Z,100.00
2023-06-28T23:02:34.739Z,100.00
2023-06-28T23:05:01.409Z,100.00
2023-06-28T23:07:32.729Z,100.00
2023-06-28T23:10:00.341Z,100.00
2023-06-28T23:12:32.402Z,100.00
2023-06-28T23:15:02.022Z,100.00
2023-06-28T23:17:31.403Z,100.00
2023-06-28T23:19:58.818Z,100.00
2023-06-28T23:22:28.674Z,100.00
2023-06-28T23:24:58.916Z,100.00
2023-06-28T23:27:26.012Z,100.00
2023-06-28T23:29:53.013Z,100.00
2023-06-28T23:32:19.659Z,100.00
2023-06-28T23:34:49.645Z,100.00
2023-06-28T23:37:17.615Z,100.00
2023-06-28T23:39:44.468Z,100.00
2023-06-28T23:42:14.998Z,100.00
2023-06-28T23:44:42.201Z,100.00
2023-06-28T23:47:11.107Z,100.00
2023-06-28T23:49:37.699Z,100.00
2023-06-28T23:52:04.514Z,100.00
2023-06-28T23:54:31.952Z,100.00
2023-06-28T23:57:00.197Z,100.00
2023-06-28T23:59:27.026Z,100.00
